sensor_id;sensor_type;location;lat;lon;timestamp;P1;durP1;ratioP1;P2;durP2;ratioP2
11328;SDS011;5719;42.714;23.732;2022-07-29T00:00:55;14.75;;;12.90;;
11328;SDS011;5719;42.714;23.732;2022-07-29T00:03:22;15.25;;;12.30;;
11328;SDS011;5719;42.714;23.732;2022-07-29T00:05:50;13.57;;;12.18;;
11328;SDS011;5719;42.714;23.732;2022-07-29T00:08:18;16.33;;;12.35;;
11328;SDS011;5719;42.714;23.732;2022-07-29T00:10:45;16.85;;;13.35;;
11328;SDS011;5719;42.714;23.732;2022-07-29T00:13:12;18.45;;;13.40;;
11328;SDS011;5719;42.714;23.732;2022-07-29T00:15:39;15.20;;;11.82;;
11328;SDS011;5719;42.714;23.732;2022-07-29T00:18:06;16.02;;;13.15;;
11328;SDS011;5719;42.714;23.732;2022-07-29T00:20:33;13.80;;;12.38;;
11328;SDS011;5719;42.714;23.732;2022-07-29T00:23:02;14.75;;;12.00;;
11328;SDS011;5719;42.714;23.732;2022-07-29T00:25:29;17.83;;;12.05;;
11328;SDS011;5719;42.714;23.732;2022-07-29T00:27:56;12.95;;;10.93;;
11328;SDS011;5719;42.714;23.732;2022-07-29T00:30:23;14.65;;;11.15;;
11328;SDS011;5719;42.714;23.732;2022-07-29T00:32:49;13.38;;;11.57;;
11328;SDS011;5719;42.714;23.732;2022-07-29T00:35:16;16.90;;;11.15;;
11328;SDS011;5719;42.714;23.732;2022-07-29T00:38:02;13.43;;;10.70;;
11328;SDS011;5719;42.714;23.732;2022-07-29T00:40:29;15.18;;;11.65;;
11328;SDS011;5719;42.714;23.732;2022-07-29T00:42:56;13.35;;;10.65;;
11328;SDS011;5719;42.714;23.732;2022-07-29T00:45:23;13.57;;;10.95;;
11328;SDS011;5719;42.714;23.732;2022-07-29T00:47:49;14.05;;;11.20;;
11328;SDS011;5719;42.714;23.732;2022-07-29T00:50:16;13.15;;;10.95;;
11328;SDS011;5719;42.714;23.732;2022-07-29T00:52:44;12.65;;;11.35;;
11328;SDS011;5719;42.714;23.732;2022-07-29T00:55:13;13.30;;;10.43;;
11328;SDS011;5719;42.714;23.732;2022-07-29T00:57:41;14.70;;;9.95;;
11328;SDS011;5719;42.714;23.732;2022-07-29T01:00:10;16.40;;;10.85;;
11328;SDS011;5719;42.714;23.732;2022-07-29T01:02:38;12.35;;;10.40;;
11328;SDS011;5719;42.714;23.732;2022-07-29T01:05:06;13.82;;;10.57;;
11328;SDS011;5719;42.714;23.732;2022-07-29T01:07:33;15.65;;;9.57;;
11328;SDS011;5719;42.714;23.732;2022-07-29T01:10:02;12.52;;;9.93;;
11328;SDS011;5719;42.714;23.732;2022-07-29T01:12:32;14.73;;;9.98;;
11328;SDS011;5719;42.714;23.732;2022-07-29T01:15:01;11.15;;;9.50;;
11328;SDS011;5719;42.714;23.732;2022-07-29T01:17:31;11.27;;;9.73;;
11328;SDS011;5719;42.714;23.732;2022-07-29T01:20:03;12.25;;;10.40;;
11328;SDS011;5719;42.714;23.732;2022-07-29T01:22:40;11.32;;;9.98;;
11328;SDS011;5719;42.714;23.732;2022-07-29T01:25:25;13.03;;;10.73;;
11328;SDS011;5719;42.714;23.732;2022-07-29T01:28:13;16.92;;;10.95;;
11328;SDS011;5719;42.714;23.732;2022-07-29T01:30:51;14.48;;;9.80;;
11328;SDS011;5719;42.714;23.732;2022-07-29T01:33:20;15.55;;;9.80;;
11328;SDS011;5719;42.714;23.732;2022-07-29T01:36:10;16.27;;;9.85;;
11328;SDS011;5719;42.714;23.732;2022-07-29T01:38:41;13.52;;;9.98;;
11328;SDS011;5719;42.714;23.732;2022-07-29T01:41:10;13.40;;;9.95;;
11328;SDS011;5719;42.714;23.732;2022-07-29T01:43:43;10.95;;;9.50;;
11328;SDS011;5719;42.714;23.732;2022-07-29T01:46:17;17.50;;;9.48;;
11328;SDS011;5719;42.714;23.732;2022-07-29T01:48:52;12.35;;;9.10;;
11328;SDS011;5719;42.714;23.732;2022-07-29T01:51:24;14.30;;;9.98;;
11328;SDS011;5719;42.714;23.732;2022-07-29T01:53:59;15.05;;;10.75;;
11328;SDS011;5719;42.714;23.732;2022-07-29T01:56:30;11.25;;;9.45;;
11328;SDS011;5719;42.714;23.732;2022-07-29T01:58:59;15.15;;;9.20;;
11328;SDS011;5719;42.714;23.732;2022-07-29T02:01:30;13.27;;;9.35;;
11328;SDS011;5719;42.714;23.732;2022-07-29T02:03:59;12.77;;;9.43;;
11328;SDS011;5719;42.714;23.732;2022-07-29T02:06:28;13.55;;;8.80;;
11328;SDS011;5719;42.714;23.732;2022-07-29T02:08:58;14.65;;;9.38;;
11328;SDS011;5719;42.714;23.732;2022-07-29T02:11:27;13.30;;;9.68;;
11328;SDS011;5719;42.714;23.732;2022-07-29T02:13:57;12.90;;;9.38;;
11328;SDS011;5719;42.714;23.732;2022-07-29T02:16:26;10.98;;;9.02;;
11328;SDS011;5719;42.714;23.732;2022-07-29T02:18:56;12.65;;;9.20;;
11328;SDS011;5719;42.714;23.732;2022-07-29T02:21:27;15.52;;;8.88;;
11328;SDS011;5719;42.714;23.732;2022-07-29T02:23:56;11.88;;;8.43;;
11328;SDS011;5719;42.714;23.732;2022-07-29T02:26:27;12.52;;;8.88;;
11328;SDS011;5719;42.714;23.732;2022-07-29T02:28:56;12.07;;;10.25;;
11328;SDS011;5719;42.714;23.732;2022-07-29T02:31:26;15.88;;;10.63;;
11328;SDS011;5719;42.714;23.732;2022-07-29T02:33:57;15.57;;;10.40;;
11328;SDS011;5719;42.714;23.732;2022-07-29T02:36:27;17.33;;;10.02;;
11328;SDS011;5719;42.714;23.732;2022-07-29T02:38:56;21.70;;;9.88;;
11328;SDS011;5719;42.714;23.732;2022-07-29T02:41:28;11.88;;;10.30;;
11328;SDS011;5719;42.714;23.732;2022-07-29T02:43:58;15.75;;;9.93;;
11328;SDS011;5719;42.714;23.732;2022-07-29T02:46:31;15.93;;;10.35;;
11328;SDS011;5719;42.714;23.732;2022-07-29T02:49:04;15.20;;;9.25;;
11328;SDS011;5719;42.714;23.732;2022-07-29T02:51:39;13.05;;;9.32;;
11328;SDS011;5719;42.714;23.732;2022-07-29T02:54:09;10.75;;;9.65;;
11328;SDS011;5719;42.714;23.732;2022-07-29T02:56:39;14.73;;;10.38;;
11328;SDS011;5719;42.714;23.732;2022-07-29T02:59:08;11.70;;;10.50;;
11328;SDS011;5719;42.714;23.732;2022-07-29T03:01:39;12.70;;;9.95;;
11328;SDS011;5719;42.714;23.732;2022-07-29T03:04:10;14.73;;;10.07;;
11328;SDS011;5719;42.714;23.732;2022-07-29T03:06:39;18.95;;;10.23;;
11328;SDS011;5719;42.714;23.732;2022-07-29T03:09:10;14.43;;;9.68;;
11328;SDS011;5719;42.714;23.732;2022-07-29T03:11:38;11.65;;;9.73;;
11328;SDS011;5719;42.714;23.732;2022-07-29T03:14:05;10.88;;;9.77;;
11328;SDS011;5719;42.714;23.732;2022-07-29T03:16:33;13.82;;;10.50;;
11328;SDS011;5719;42.714;23.732;2022-07-29T03:19:02;16.55;;;10.02;;
11328;SDS011;5719;42.714;23.732;2022-07-29T03:21:31;12.02;;;10.38;;
11328;SDS011;5719;42.714;23.732;2022-07-29T03:23:59;12.68;;;9.75;;
11328;SDS011;5719;42.714;23.732;2022-07-29T03:26:26;11.50;;;9.80;;
11328;SDS011;5719;42.714;23.732;2022-07-29T03:28:54;12.07;;;10.25;;
11328;SDS011;5719;42.714;23.732;2022-07-29T03:31:21;14.77;;;10.45;;
11328;SDS011;5719;42.714;23.732;2022-07-29T03:33:48;13.30;;;10.13;;
11328;SDS011;5719;42.714;23.732;2022-07-29T03:36:15;11.18;;;9.93;;
11328;SDS011;5719;42.714;23.732;2022-07-29T03:38:43;14.05;;;10.20;;
11328;SDS011;5719;42.714;23.732;2022-07-29T03:41:11;14.32;;;10.55;;
11328;SDS011;5719;42.714;23.732;2022-07-29T03:43:40;14.48;;;10.07;;
11328;SDS011;5719;42.714;23.732;2022-07-29T03:46:09;13.73;;;10.20;;
11328;SDS011;5719;42.714;23.732;2022-07-29T03:48:39;12.70;;;10.30;;
11328;SDS011;5719;42.714;23.732;2022-07-29T03:51:12;13.00;;;11.48;;
11328;SDS011;5719;42.714;23.732;2022-07-29T03:53:39;16.30;;;11.00;;
11328;SDS011;5719;42.714;23.732;2022-07-29T03:56:08;18.00;;;11.38;;
11328;SDS011;5719;42.714;23.732;2022-07-29T03:58:36;14.48;;;11.32;;
11328;SDS011;5719;42.714;23.732;2022-07-29T04:01:04;11.73;;;10.50;;
11328;SDS011;5719;42.714;23.732;2022-07-29T04:03:32;16.27;;;11.75;;
11328;SDS011;5719;42.714;23.732;2022-07-29T04:06:00;14.05;;;11.13;;
11328;SDS011;5719;42.714;23.732;2022-07-29T04:08:28;12.60;;;10.90;;
11328;SDS011;5719;42.714;23.732;2022-07-29T04:10:55;11.77;;;10.50;;
11328;SDS011;5719;42.714;23.732;2022-07-29T04:13:23;12.77;;;10.82;;
11328;SDS011;5719;42.714;23.732;2022-07-29T04:15:50;14.52;;;11.13;;
11328;SDS011;5719;42.714;23.732;2022-07-29T04:18:17;17.05;;;11.40;;
11328;SDS011;5719;42.714;23.732;2022-07-29T04:20:44;15.88;;;11.32;;
11328;SDS011;5719;42.714;23.732;2022-07-29T04:23:11;11.75;;;10.32;;
11328;SDS011;5719;42.714;23.732;2022-07-29T04:25:38;14.00;;;11.02;;
11328;SDS011;5719;42.714;23.732;2022-07-29T04:28:06;13.32;;;10.07;;
11328;SDS011;5719;42.714;23.732;2022-07-29T04:30:35;13.98;;;11.00;;
11328;SDS011;5719;42.714;23.732;2022-07-29T04:33:03;14.70;;;11.38;;
11328;SDS011;5719;42.714;23.732;2022-07-29T04:35:33;12.07;;;10.60;;
11328;SDS011;5719;42.714;23.732;2022-07-29T04:38:02;12.68;;;10.70;;
11328;SDS011;5719;42.714;23.732;2022-07-29T04:40:29;12.88;;;9.77;;
11328;SDS011;5719;42.714;23.732;2022-07-29T04:42:58;20.25;;;10.48;;
11328;SDS011;5719;42.714;23.732;2022-07-29T04:45:25;16.30;;;10.23;;
11328;SDS011;5719;42.714;23.732;2022-07-29T04:47:54;12.93;;;10.70;;
11328;SDS011;5719;42.714;23.732;2022-07-29T04:50:21;14.75;;;10.73;;
11328;SDS011;5719;42.714;23.732;2022-07-29T04:52:48;13.55;;;10.35;;
11328;SDS011;5719;42.714;23.732;2022-07-29T04:55:15;12.07;;;10.40;;
11328;SDS011;5719;42.714;23.732;2022-07-29T04:57:42;11.77;;;10.13;;
11328;SDS011;5719;42.714;23.732;2022-07-29T05:00:09;13.40;;;9.98;;
11328;SDS011;5719;42.714;23.732;2022-07-29T05:02:36;12.27;;;10.60;;
11328;SDS011;5719;42.714;23.732;2022-07-29T05:05:06;12.23;;;9.10;;
11328;SDS011;5719;42.714;23.732;2022-07-29T05:07:33;8.70;;;7.65;;
11328;SDS011;5719;42.714;23.732;2022-07-29T05:10:00;9.40;;;8.35;;
11328;SDS011;5719;42.714;23.732;2022-07-29T05:12:27;10.05;;;8.57;;
11328;SDS011;5719;42.714;23.732;2022-07-29T05:14:54;11.57;;;9.68;;
11328;SDS011;5719;42.714;23.732;2022-07-29T05:17:21;14.13;;;9.35;;
11328;SDS011;5719;42.714;23.732;2022-07-29T05:19:48;13.80;;;9.32;;
11328;SDS011;5719;42.714;23.732;2022-07-29T05:22:18;12.63;;;9.52;;
11328;SDS011;5719;42.714;23.732;2022-07-29T05:24:45;11.10;;;10.00;;
11328;SDS011;5719;42.714;23.732;2022-07-29T05:27:12;9.93;;;8.93;;
11328;SDS011;5719;42.714;23.732;2022-07-29T05:29:39;10.57;;;8.82;;
11328;SDS011;5719;42.714;23.732;2022-07-29T05:32:07;12.25;;;8.85;;
11328;SDS011;5719;42.714;23.732;2022-07-29T05:34:34;12.57;;;8.63;;
11328;SDS011;5719;42.714;23.732;2022-07-29T05:37:01;10.70;;;8.52;;
11328;SDS011;5719;42.714;23.732;2022-07-29T05:39:29;8.70;;;7.80;;
11328;SDS011;5719;42.714;23.732;2022-07-29T05:41:56;8.10;;;7.20;;
11328;SDS011;5719;42.714;23.732;2022-07-29T05:44:23;8.63;;;7.82;;
11328;SDS011;5719;42.714;23.732;2022-07-29T05:46:50;11.07;;;7.93;;
11328;SDS011;5719;42.714;23.732;2022-07-29T05:49:17;9.82;;;7.65;;
11328;SDS011;5719;42.714;23.732;2022-07-29T05:51:44;8.82;;;7.95;;
11328;SDS011;5719;42.714;23.732;2022-07-29T05:54:12;10.82;;;7.28;;
11328;SDS011;5719;42.714;23.732;2022-07-29T05:56:40;10.13;;;6.82;;
11328;SDS011;5719;42.714;23.732;2022-07-29T05:59:07;9.05;;;5.30;;
11328;SDS011;5719;42.714;23.732;2022-07-29T06:01:34;4.95;;;4.50;;
11328;SDS011;5719;42.714;23.732;2022-07-29T06:04:04;8.77;;;4.25;;
11328;SDS011;5719;42.714;23.732;2022-07-29T06:06:31;3.58;;;3.38;;
11328;SDS011;5719;42.714;23.732;2022-07-29T06:08:59;3.83;;;3.33;;
11328;SDS011;5719;42.714;23.732;2022-07-29T06:11:26;12.68;;;3.25;;
11328;SDS011;5719;42.714;23.732;2022-07-29T06:13:55;6.53;;;3.20;;
11328;SDS011;5719;42.714;23.732;2022-07-29T06:16:22;5.05;;;3.05;;
11328;SDS011;5719;42.714;23.732;2022-07-29T06:18:48;10.25;;;3.20;;
11328;SDS011;5719;42.714;23.732;2022-07-29T06:21:15;5.80;;;3.00;;
11328;SDS011;5719;42.714;23.732;2022-07-29T06:23:44;3.10;;;2.90;;
11328;SDS011;5719;42.714;23.732;2022-07-29T06:26:11;3.25;;;2.95;;
11328;SDS011;5719;42.714;23.732;2022-07-29T06:28:38;5.03;;;3.08;;
11328;SDS011;5719;42.714;23.732;2022-07-29T06:31:07;8.55;;;3.22;;
11328;SDS011;5719;42.714;23.732;2022-07-29T06:33:34;4.35;;;3.22;;
11328;SDS011;5719;42.714;23.732;2022-07-29T06:36:03;4.20;;;3.08;;
11328;SDS011;5719;42.714;23.732;2022-07-29T06:38:30;6.93;;;3.08;;
11328;SDS011;5719;42.714;23.732;2022-07-29T06:40:57;3.72;;;3.00;;
11328;SDS011;5719;42.714;23.732;2022-07-29T06:43:27;3.20;;;2.75;;
11328;SDS011;5719;42.714;23.732;2022-07-29T06:45:57;7.07;;;3.00;;
11328;SDS011;5719;42.714;23.732;2022-07-29T06:48:27;6.07;;;2.85;;
11328;SDS011;5719;42.714;23.732;2022-07-29T06:50:55;3.47;;;3.00;;
11328;SDS011;5719;42.714;23.732;2022-07-29T06:53:22;2.92;;;2.72;;
11328;SDS011;5719;42.714;23.732;2022-07-29T06:55:50;6.13;;;2.85;;
11328;SDS011;5719;42.714;23.732;2022-07-29T06:58:17;3.28;;;2.97;;
11328;SDS011;5719;42.714;23.732;2022-07-29T07:00:46;3.17;;;2.88;;
11328;SDS011;5719;42.714;23.732;2022-07-29T07:03:13;6.55;;;2.92;;
11328;SDS011;5719;42.714;23.732;2022-07-29T07:05:42;3.60;;;2.83;;
11328;SDS011;5719;42.714;23.732;2022-07-29T07:08:09;3.17;;;2.88;;
11328;SDS011;5719;42.714;23.732;2022-07-29T07:10:36;3.28;;;2.28;;
11328;SDS011;5719;42.714;23.732;2022-07-29T07:13:03;2.90;;;2.65;;
11328;SDS011;5719;42.714;23.732;2022-07-29T07:15:31;6.00;;;2.60;;
11328;SDS011;5719;42.714;23.732;2022-07-29T07:17:58;6.72;;;2.60;;
11328;SDS011;5719;42.714;23.732;2022-07-29T07:20:25;5.47;;;2.80;;
11328;SDS011;5719;42.714;23.732;2022-07-29T07:22:54;3.78;;;2.58;;
11328;SDS011;5719;42.714;23.732;2022-07-29T07:25:21;4.78;;;3.05;;
11328;SDS011;5719;42.714;23.732;2022-07-29T07:27:48;6.30;;;2.90;;
11328;SDS011;5719;42.714;23.732;2022-07-29T07:30:15;4.25;;;2.72;;
11328;SDS011;5719;42.714;23.732;2022-07-29T07:32:42;2.60;;;2.38;;
11328;SDS011;5719;42.714;23.732;2022-07-29T07:35:09;4.60;;;2.33;;
11328;SDS011;5719;42.714;23.732;2022-07-29T07:37:36;2.70;;;2.50;;
11328;SDS011;5719;42.714;23.732;2022-07-29T07:40:07;3.78;;;2.47;;
11328;SDS011;5719;42.714;23.732;2022-07-29T07:42:36;4.85;;;2.40;;
11328;SDS011;5719;42.714;23.732;2022-07-29T07:45:04;8.38;;;2.75;;
11328;SDS011;5719;42.714;23.732;2022-07-29T07:47:34;3.58;;;2.45;;
11328;SDS011;5719;42.714;23.732;2022-07-29T07:50:01;2.67;;;2.47;;
11328;SDS011;5719;42.714;23.732;2022-07-29T07:52:29;3.45;;;2.47;;
11328;SDS011;5719;42.714;23.732;2022-07-29T07:54:56;3.78;;;2.88;;
11328;SDS011;5719;42.714;23.732;2022-07-29T07:57:24;4.82;;;2.30;;
11328;SDS011;5719;42.714;23.732;2022-07-29T07:59:51;3.92;;;2.60;;
11328;SDS011;5719;42.714;23.732;2022-07-29T08:02:18;2.53;;;2.33;;
11328;SDS011;5719;42.714;23.732;2022-07-29T08:04:45;5.22;;;2.75;;
11328;SDS011;5719;42.714;23.732;2022-07-29T08:07:12;3.25;;;2.70;;
11328;SDS011;5719;42.714;23.732;2022-07-29T08:09:40;6.05;;;2.95;;
11328;SDS011;5719;42.714;23.732;2022-07-29T08:12:07;4.47;;;2.55;;
11328;SDS011;5719;42.714;23.732;2022-07-29T08:14:35;2.45;;;2.33;;
11328;SDS011;5719;42.714;23.732;2022-07-29T08:17:02;2.97;;;2.70;;
11328;SDS011;5719;42.714;23.732;2022-07-29T08:19:29;6.00;;;2.83;;
11328;SDS011;5719;42.714;23.732;2022-07-29T08:21:56;5.45;;;2.63;;
11328;SDS011;5719;42.714;23.732;2022-07-29T08:24:23;9.07;;;3.10;;
11328;SDS011;5719;42.714;23.732;2022-07-29T08:27:07;2.78;;;2.58;;
11328;SDS011;5719;42.714;23.732;2022-07-29T08:29:36;4.53;;;2.80;;
11328;SDS011;5719;42.714;23.732;2022-07-29T08:32:03;4.00;;;2.47;;
11328;SDS011;5719;42.714;23.732;2022-07-29T08:34:31;3.53;;;2.85;;
11328;SDS011;5719;42.714;23.732;2022-07-29T08:36:58;4.90;;;2.65;;
11328;SDS011;5719;42.714;23.732;2022-07-29T08:39:25;3.13;;;2.80;;
11328;SDS011;5719;42.714;23.732;2022-07-29T08:41:52;4.45;;;2.20;;
11328;SDS011;5719;42.714;23.732;2022-07-29T08:44:20;3.95;;;2.70;;
11328;SDS011;5719;42.714;23.732;2022-07-29T08:46:50;5.65;;;2.63;;
11328;SDS011;5719;42.714;23.732;2022-07-29T08:49:17;3.85;;;2.33;;
11328;SDS011;5719;42.714;23.732;2022-07-29T08:51:44;6.10;;;2.30;;
11328;SDS011;5719;42.714;23.732;2022-07-29T08:54:11;3.47;;;2.10;;
11328;SDS011;5719;42.714;23.732;2022-07-29T08:56:43;6.38;;;2.30;;
11328;SDS011;5719;42.714;23.732;2022-07-29T08:59:11;3.03;;;2.05;;
11328;SDS011;5719;42.714;23.732;2022-07-29T09:01:39;2.55;;;1.95;;
11328;SDS011;5719;42.714;23.732;2022-07-29T09:04:11;2.78;;;1.80;;
11328;SDS011;5719;42.714;23.732;2022-07-29T09:06:40;2.30;;;1.80;;
11328;SDS011;5719;42.714;23.732;2022-07-29T09:09:10;3.75;;;2.20;;
11328;SDS011;5719;42.714;23.732;2022-07-29T09:11:38;2.30;;;1.90;;
11328;SDS011;5719;42.714;23.732;2022-07-29T09:14:05;2.78;;;2.40;;
11328;SDS011;5719;42.714;23.732;2022-07-29T09:16:46;5.82;;;2.10;;
11328;SDS011;5719;42.714;23.732;2022-07-29T09:19:20;4.63;;;2.25;;
11328;SDS011;5719;42.714;23.732;2022-07-29T09:21:56;3.95;;;2.35;;
11328;SDS011;5719;42.714;23.732;2022-07-29T09:24:23;4.60;;;2.00;;
11328;SDS011;5719;42.714;23.732;2022-07-29T09:26:50;4.93;;;2.33;;
11328;SDS011;5719;42.714;23.732;2022-07-29T09:29:18;3.58;;;1.90;;
11328;SDS011;5719;42.714;23.732;2022-07-29T09:31:47;3.22;;;2.10;;
11328;SDS011;5719;42.714;23.732;2022-07-29T09:34:16;3.53;;;2.05;;
11328;SDS011;5719;42.714;23.732;2022-07-29T09:36:49;2.35;;;2.17;;
11328;SDS011;5719;42.714;23.732;2022-07-29T09:39:26;2.65;;;2.28;;
11328;SDS011;5719;42.714;23.732;2022-07-29T09:41:54;3.63;;;2.20;;
11328;SDS011;5719;42.714;23.732;2022-07-29T09:44:23;3.78;;;2.10;;
11328;SDS011;5719;42.714;23.732;2022-07-29T09:46:54;1.98;;;1.88;;
11328;SDS011;5719;42.714;23.732;2022-07-29T09:49:22;4.43;;;2.35;;
11328;SDS011;5719;42.714;23.732;2022-07-29T09:51:59;4.78;;;2.25;;
11328;SDS011;5719;42.714;23.732;2022-07-29T09:54:29;2.40;;;2.20;;
11328;SDS011;5719;42.714;23.732;2022-07-29T09:57:01;2.88;;;2.13;;
11328;SDS011;5719;42.714;23.732;2022-07-29T09:59:30;3.30;;;2.25;;
11328;SDS011;5719;42.714;23.732;2022-07-29T10:01:57;3.47;;;2.25;;
11328;SDS011;5719;42.714;23.732;2022-07-29T10:04:24;3.67;;;1.73;;
11328;SDS011;5719;42.714;23.732;2022-07-29T10:07:05;4.13;;;2.00;;
11328;SDS011;5719;42.714;23.732;2022-07-29T10:09:32;4.60;;;2.00;;
11328;SDS011;5719;42.714;23.732;2022-07-29T10:12:06;6.15;;;2.13;;
11328;SDS011;5719;42.714;23.732;2022-07-29T10:14:36;5.03;;;1.88;;
11328;SDS011;5719;42.714;23.732;2022-07-29T10:17:04;3.42;;;1.70;;
11328;SDS011;5719;42.714;23.732;2022-07-29T10:19:32;2.20;;;2.00;;
11328;SDS011;5719;42.714;23.732;2022-07-29T10:22:01;2.20;;;2.00;;
11328;SDS011;5719;42.714;23.732;2022-07-29T10:24:30;2.30;;;2.08;;
11328;SDS011;5719;42.714;23.732;2022-07-29T10:26:59;3.78;;;2.30;;
11328;SDS011;5719;42.714;23.732;2022-07-29T10:29:27;7.40;;;2.75;;
11328;SDS011;5719;42.714;23.732;2022-07-29T10:32:00;6.88;;;2.30;;
11328;SDS011;5719;42.714;23.732;2022-07-29T10:34:46;4.07;;;2.60;;
11328;SDS011;5719;42.714;23.732;2022-07-29T10:37:25;3.50;;;2.60;;
11328;SDS011;5719;42.714;23.732;2022-07-29T10:40:05;2.45;;;2.25;;
11328;SDS011;5719;42.714;23.732;2022-07-29T10:42:59;3.83;;;2.65;;
11328;SDS011;5719;42.714;23.732;2022-07-29T10:45:33;5.07;;;2.60;;
11328;SDS011;5719;42.714;23.732;2022-07-29T10:48:03;3.20;;;2.80;;
11328;SDS011;5719;42.714;23.732;2022-07-29T10:53:20;5.28;;;2.40;;
11328;SDS011;5719;42.714;23.732;2022-07-29T10:55:49;4.72;;;2.90;;
11328;SDS011;5719;42.714;23.732;2022-07-29T10:58:18;3.20;;;2.20;;
11328;SDS011;5719;42.714;23.732;2022-07-29T11:00:48;3.63;;;2.47;;
11328;SDS011;5719;42.714;23.732;2022-07-29T11:06:11;2.80;;;2.60;;
11328;SDS011;5719;42.714;23.732;2022-07-29T11:08:38;2.85;;;2.60;;
11328;SDS011;5719;42.714;23.732;2022-07-29T11:14:05;3.50;;;2.30;;
11328;SDS011;5719;42.714;23.732;2022-07-29T11:19:30;3.67;;;2.78;;
11328;SDS011;5719;42.714;23.732;2022-07-29T11:21:58;4.10;;;2.65;;
11328;SDS011;5719;42.714;23.732;2022-07-29T11:24:26;3.67;;;2.70;;
11328;SDS011;5719;42.714;23.732;2022-07-29T11:27:16;7.30;;;2.63;;
11328;SDS011;5719;42.714;23.732;2022-07-29T11:29:49;4.88;;;2.70;;
11328;SDS011;5719;42.714;23.732;2022-07-29T11:32:21;5.60;;;3.10;;
11328;SDS011;5719;42.714;23.732;2022-07-29T11:34:50;5.88;;;2.78;;
11328;SDS011;5719;42.714;23.732;2022-07-29T11:37:37;3.05;;;2.70;;
11328;SDS011;5719;42.714;23.732;2022-07-29T11:40:08;2.80;;;2.60;;
11328;SDS011;5719;42.714;23.732;2022-07-29T11:42:48;3.47;;;2.72;;
11328;SDS011;5719;42.714;23.732;2022-07-29T11:45:20;4.22;;;2.90;;
11328;SDS011;5719;42.714;23.732;2022-07-29T11:47:58;4.80;;;2.72;;
11328;SDS011;5719;42.714;23.732;2022-07-29T11:50:33;4.05;;;2.60;;
11328;SDS011;5719;42.714;23.732;2022-07-29T11:53:03;2.85;;;2.65;;
11328;SDS011;5719;42.714;23.732;2022-07-29T11:55:37;3.15;;;2.85;;
11328;SDS011;5719;42.714;23.732;2022-07-29T11:58:06;3.53;;;2.88;;
11328;SDS011;5719;42.714;23.732;2022-07-29T12:00:33;3.03;;;2.53;;
11328;SDS011;5719;42.714;23.732;2022-07-29T12:03:03;3.90;;;3.15;;
11328;SDS011;5719;42.714;23.732;2022-07-29T12:05:32;5.75;;;3.15;;
11328;SDS011;5719;42.714;23.732;2022-07-29T12:08:04;2.55;;;2.35;;
11328;SDS011;5719;42.714;23.732;2022-07-29T12:10:36;2.97;;;2.78;;
11328;SDS011;5719;42.714;23.732;2022-07-29T12:13:07;3.78;;;3.00;;
11328;SDS011;5719;42.714;23.732;2022-07-29T12:15:34;4.00;;;2.80;;
11328;SDS011;5719;42.714;23.732;2022-07-29T12:18:14;3.38;;;2.75;;
11328;SDS011;5719;42.714;23.732;2022-07-29T12:20:43;3.35;;;3.10;;
11328;SDS011;5719;42.714;23.732;2022-07-29T12:23:12;3.20;;;2.95;;
11328;SDS011;5719;42.714;23.732;2022-07-29T12:25:41;4.60;;;2.97;;
11328;SDS011;5719;42.714;23.732;2022-07-29T12:28:11;3.97;;;3.30;;
11328;SDS011;5719;42.714;23.732;2022-07-29T12:30:44;3.97;;;3.30;;
11328;SDS011;5719;42.714;23.732;2022-07-29T12:33:16;3.28;;;3.03;;
11328;SDS011;5719;42.714;23.732;2022-07-29T12:35:49;4.03;;;3.00;;
11328;SDS011;5719;42.714;23.732;2022-07-29T12:38:18;3.20;;;2.90;;
11328;SDS011;5719;42.714;23.732;2022-07-29T12:40:46;3.53;;;2.78;;
11328;SDS011;5719;42.714;23.732;2022-07-29T12:43:16;2.90;;;2.70;;
11328;SDS011;5719;42.714;23.732;2022-07-29T12:45:45;5.05;;;3.10;;
11328;SDS011;5719;42.714;23.732;2022-07-29T12:48:13;4.18;;;3.40;;
11328;SDS011;5719;42.714;23.732;2022-07-29T12:50:57;4.18;;;3.17;;
11328;SDS011;5719;42.714;23.732;2022-07-29T12:53:25;4.35;;;3.08;;
11328;SDS011;5719;42.714;23.732;2022-07-29T12:55:53;4.32;;;3.00;;
11328;SDS011;5719;42.714;23.732;2022-07-29T12:58:29;7.95;;;3.10;;
11328;SDS011;5719;42.714;23.732;2022-07-29T13:01:05;3.40;;;3.10;;
11328;SDS011;5719;42.714;23.732;2022-07-29T13:03:47;3.05;;;2.80;;
11328;SDS011;5719;42.714;23.732;2022-07-29T13:09:11;4.22;;;2.60;;
11328;SDS011;5719;42.714;23.732;2022-07-29T13:11:41;2.70;;;2.50;;
11328;SDS011;5719;42.714;23.732;2022-07-29T13:14:12;2.90;;;2.70;;
11328;SDS011;5719;42.714;23.732;2022-07-29T13:19:33;4.45;;;2.85;;
11328;SDS011;5719;42.714;23.732;2022-07-29T13:22:05;4.70;;;2.63;;
11328;SDS011;5719;42.714;23.732;2022-07-29T13:24:32;2.63;;;2.42;;
11328;SDS011;5719;42.714;23.732;2022-07-29T13:26:59;3.35;;;2.63;;
11328;SDS011;5719;42.714;23.732;2022-07-29T13:29:28;4.00;;;2.60;;
11328;SDS011;5719;42.714;23.732;2022-07-29T13:31:55;6.45;;;2.80;;
11328;SDS011;5719;42.714;23.732;2022-07-29T13:34:22;3.40;;;2.90;;
11328;SDS011;5719;42.714;23.732;2022-07-29T13:36:49;2.70;;;2.50;;
11328;SDS011;5719;42.714;23.732;2022-07-29T13:39:16;2.90;;;2.70;;
11328;SDS011;5719;42.714;23.732;2022-07-29T13:41:43;2.80;;;2.60;;
11328;SDS011;5719;42.714;23.732;2022-07-29T13:44:10;6.20;;;2.70;;
11328;SDS011;5719;42.714;23.732;2022-07-29T13:46:38;4.57;;;3.10;;
11328;SDS011;5719;42.714;23.732;2022-07-29T13:49:05;2.90;;;2.70;;
11328;SDS011;5719;42.714;23.732;2022-07-29T13:51:33;4.10;;;2.63;;
11328;SDS011;5719;42.714;23.732;2022-07-29T13:54:00;3.22;;;2.95;;
11328;SDS011;5719;42.714;23.732;2022-07-29T13:56:26;3.45;;;2.78;;
11328;SDS011;5719;42.714;23.732;2022-07-29T13:58:53;3.72;;;3.00;;
11328;SDS011;5719;42.714;23.732;2022-07-29T14:01:20;3.38;;;3.10;;
11328;SDS011;5719;42.714;23.732;2022-07-29T14:03:49;3.13;;;2.90;;
11328;SDS011;5719;42.714;23.732;2022-07-29T14:06:16;3.10;;;2.90;;
11328;SDS011;5719;42.714;23.732;2022-07-29T14:08:43;3.55;;;3.22;;
11328;SDS011;5719;42.714;23.732;2022-07-29T14:11:09;2.97;;;2.75;;
11328;SDS011;5719;42.714;23.732;2022-07-29T14:13:36;3.45;;;2.75;;
11328;SDS011;5719;42.714;23.732;2022-07-29T14:16:04;3.70;;;2.90;;
11328;SDS011;5719;42.714;23.732;2022-07-29T14:18:32;4.65;;;2.70;;
11328;SDS011;5719;42.714;23.732;2022-07-29T14:21:00;2.78;;;2.58;;
11328;SDS011;5719;42.714;23.732;2022-07-29T14:23:27;2.95;;;2.75;;
11328;SDS011;5719;42.714;23.732;2022-07-29T14:25:54;3.15;;;2.95;;
11328;SDS011;5719;42.714;23.732;2022-07-29T14:28:21;3.10;;;2.90;;
11328;SDS011;5719;42.714;23.732;2022-07-29T14:30:48;6.05;;;2.88;;
11328;SDS011;5719;42.714;23.732;2022-07-29T14:33:15;4.18;;;2.70;;
11328;SDS011;5719;42.714;23.732;2022-07-29T14:35:42;3.45;;;3.15;;
11328;SDS011;5719;42.714;23.732;2022-07-29T14:38:10;5.45;;;3.13;;
11328;SDS011;5719;42.714;23.732;2022-07-29T14:40:37;7.18;;;3.17;;
11328;SDS011;5719;42.714;23.732;2022-07-29T14:43:05;3.20;;;2.90;;
11328;SDS011;5719;42.714;23.732;2022-07-29T14:45:32;3.28;;;2.97;;
11328;SDS011;5719;42.714;23.732;2022-07-29T14:47:59;2.70;;;2.47;;
11328;SDS011;5719;42.714;23.732;2022-07-29T14:50:26;7.90;;;2.72;;
11328;SDS011;5719;42.714;23.732;2022-07-29T14:52:53;3.17;;;2.90;;
11328;SDS011;5719;42.714;23.732;2022-07-29T14:55:21;7.85;;;2.80;;
11328;SDS011;5719;42.714;23.732;2022-07-29T14:57:48;4.88;;;2.60;;
11328;SDS011;5719;42.714;23.732;2022-07-29T15:00:16;3.40;;;2.58;;
11328;SDS011;5719;42.714;23.732;2022-07-29T15:02:43;3.92;;;2.42;;
11328;SDS011;5719;42.714;23.732;2022-07-29T15:05:10;4.90;;;2.80;;
11328;SDS011;5719;42.714;23.732;2022-07-29T15:07:37;10.57;;;3.03;;
11328;SDS011;5719;42.714;23.732;2022-07-29T15:10:05;3.50;;;2.83;;